createdAt,value
2017-11-29T01:38:31.852Z,1001.92
2017-11-29T01:38:32.429Z,1001.92
2017-11-29T01:38:33.027Z,1001.88
2017-11-29T01:38:33.627Z,1001.90
2017-11-29T01:38:34.227Z,1001.93
2017-11-29T01:38:34.826Z,1001.89
2017-11-29T01:38:35.426Z,1001.89
2017-11-29T01:38:36.025Z,1001.90
2017-11-29T01:39:30.532Z,1001.88
2017-11-29T01:39:31.106Z,1001.92
2017-11-29T01:39:31.703Z,1001.92
2017-11-29T01:39:32.302Z,1001.92
2017-11-29T01:39:32.902Z,1001.88
2017-11-29T01:39:33.502Z,1001.90
2017-11-29T01:39:34.104Z,1001.86
2017-11-29T01:39:34.701Z,1001.90
2017-11-29T01:40:29.715Z,1001.95
2017-11-29T01:40:30.292Z,1001.95
2017-11-29T01:40:30.891Z,1001.93
2017-11-29T01:40:31.490Z,1001.95
2017-11-29T01:40:32.095Z,1001.95
2017-11-29T01:40:32.689Z,1001.92
2017-11-29T01:41:27.699Z,1001.95
2017-11-29T01:41:28.251Z,1001.92
2017-11-29T01:41:28.851Z,1001.90
2017-11-29T01:41:29.451Z,1001.89
2017-11-29T01:41:30.054Z,1001.92
2017-11-29T01:41:30.651Z,1001.89
2017-11-29T01:41:31.251Z,1001.96
2017-11-29T01:41:31.850Z,1001.92
2017-11-29T01:42:26.353Z,1001.92
2017-11-29T01:42:26.930Z,1001.94
2017-11-29T01:42:27.547Z,1001.93
2017-11-29T01:42:28.126Z,1001.94
2017-11-29T01:42:28.726Z,1001.91
2017-11-29T01:42:29.326Z,1001.91
2017-11-29T01:42:29.925Z,1001.89
2017-11-29T01:42:30.527Z,1001.90
2017-11-29T01:43:24.009Z,1001.97
2017-11-29T01:43:24.582Z,1001.96
2017-11-29T01:43:25.181Z,1001.95
2017-11-29T01:43:25.782Z,1001.94
2017-11-29T01:43:26.380Z,1001.95
2017-11-29T01:43:26.980Z,1001.95
2017-11-29T01:43:27.580Z,1001.92
2017-11-29T01:43:28.181Z,1001.91
2017-11-29T01:44:22.681Z,1001.93
2017-11-29T01:44:23.265Z,1001.93
2017-11-29T01:44:23.855Z,1001.93
2017-11-29T01:44:24.454Z,1001.93
2017-11-29T01:44:25.057Z,1001.96
2017-11-29T01:44:25.655Z,1001.95
2017-11-29T01:44:26.255Z,1001.94
2017-11-29T01:44:26.858Z,1001.98
2017-11-29T01:45:21.366Z,1001.94
2017-11-29T01:45:21.932Z,1001.94
2017-11-29T01:45:22.531Z,1001.91
2017-11-29T01:45:23.131Z,1001.96
2017-11-29T01:45:23.731Z,1001.93
2017-11-29T01:45:24.329Z,1001.93
2017-11-29T01:45:24.930Z,1001.93
2017-11-29T01:45:25.531Z,1001.96
2017-11-29T01:46:20.032Z,1001.91
2017-11-29T01:46:20.608Z,1001.92
2017-11-29T01:46:21.212Z,1001.88
2017-11-29T01:46:21.807Z,1001.91
2017-11-29T01:46:22.406Z,1001.90
2017-11-29T01:46:23.006Z,1001.93
2017-11-29T01:46:23.605Z,1001.95
2017-11-29T01:46:24.207Z,1001.90
2017-11-29T01:47:17.685Z,1001.94
2017-11-29T01:47:18.276Z,1001.98
2017-11-29T01:47:18.861Z,1001.99
2017-11-29T01:47:19.461Z,1001.99
2017-11-29T01:47:20.061Z,1001.94
2017-11-29T01:47:20.660Z,1001.98
2017-11-29T01:47:21.268Z,1001.98
2017-11-29T01:47:21.859Z,1001.94
2017-11-29T01:48:15.339Z,1001.94
2017-11-29T01:48:15.911Z,1001.89
2017-11-29T01:48:16.511Z,1001.91
2017-11-29T01:48:17.111Z,1001.94
2017-11-29T01:48:17.710Z,1001.93
2017-11-29T01:48:18.309Z,1001.99
2017-11-29T01:48:18.909Z,1001.94
2017-11-29T01:48:19.522Z,1001.94
2017-11-29T01:49:12.990Z,1001.89
2017-11-29T01:49:13.564Z,1001.94
2017-11-29T01:49:14.163Z,1001.92
2017-11-29T01:49:14.764Z,1001.88
2017-11-29T01:49:15.363Z,1001.97
2017-11-29T01:49:15.962Z,1001.95
2017-11-29T01:49:16.563Z,1001.92
2017-11-29T01:49:17.162Z,1001.90
2017-11-29T01:50:10.642Z,1001.92
2017-11-29T01:50:11.216Z,1001.93
2017-11-29T01:50:11.817Z,1001.96
2017-11-29T01:50:12.414Z,1001.93
2017-11-29T01:50:13.013Z,1001.92
2017-11-29T01:50:13.613Z,1001.95
2017-11-29T01:50:14.214Z,1001.95
2017-11-29T01:50:14.812Z,1001.94
2017-11-29T01:51:09.317Z,1001.93
2017-11-29T01:51:09.890Z,1001.94
2017-11-29T01:51:10.490Z,1001.90
2017-11-29T01:51:11.090Z,1001.93
2017-11-29T01:51:11.689Z,1001.93
2017-11-29T01:51:12.291Z,1001.96
2017-11-29T01:51:12.893Z,1001.95
2017-11-29T01:51:13.489Z,1001.94
2017-11-29T01:52:06.969Z,1001.93
2017-11-29T01:52:07.543Z,1001.89
2017-11-29T01:52:08.143Z,1001.94
2017-11-29T01:52:08.742Z,1001.93
2017-11-29T01:52:09.344Z,1001.94
2017-11-29T01:52:09.942Z,1001.92
2017-11-29T01:52:10.542Z,1001.92
2017-11-29T01:52:11.143Z,1001.94
2017-11-29T01:53:04.619Z,1001.97
2017-11-29T01:53:05.194Z,1001.95
2017-11-29T01:53:05.794Z,1001.94
2017-11-29T01:53:06.393Z,1001.99
2017-11-29T01:53:06.993Z,1001.96
2017-11-29T01:53:07.593Z,1001.94
2017-11-29T01:53:08.194Z,1001.95
2017-11-29T01:53:08.794Z,1001.93
2017-11-29T01:54:02.275Z,1001.95
2017-11-29T01:54:02.847Z,1001.97
2017-11-29T01:54:03.446Z,1001.97
2017-11-29T01:54:04.046Z,1001.97
2017-11-29T01:54:04.645Z,1002.00
2017-11-29T01:54:05.245Z,1001.98
2017-11-29T01:54:05.845Z,1001.99
2017-11-29T01:54:06.445Z,1001.98
2017-11-29T01:55:00.956Z,1001.93
2017-11-29T01:55:01.526Z,1001.92
2017-11-29T01:55:02.124Z,1001.93
2017-11-29T01:55:02.723Z,1001.95
2017-11-29T01:55:03.320Z,1001.98
2017-11-29T01:55:03.920Z,1001.94
2017-11-29T01:55:04.520Z,1001.95
2017-11-29T01:55:05.121Z,1001.98
2017-11-29T01:55:59.622Z,1001.95
2017-11-29T01:56:00.199Z,1002.00
2017-11-29T01:56:00.799Z,1001.95
2017-11-29T01:56:01.397Z,1001.97
2017-11-29T01:56:01.997Z,1001.96
2017-11-29T01:56:02.596Z,1001.95
2017-11-29T01:56:03.197Z,1001.98
2017-11-29T01:56:03.799Z,1001.95
2017-11-29T01:56:58.299Z,1001.95
2017-11-29T01:56:58.874Z,1001.97
2017-11-29T01:56:59.473Z,1001.95
2017-11-29T01:57:00.072Z,1001.95
2017-11-29T01:57:00.672Z,1001.95
2017-11-29T01:57:01.283Z,1001.92
2017-11-29T01:57:01.872Z,1001.98
2017-11-29T01:57:02.473Z,1001.95
2017-11-29T01:57:55.951Z,1001.94
2017-11-29T01:57:56.526Z,1001.90
2017-11-29T01:57:57.125Z,1001.94
2017-11-29T01:57:57.725Z,1001.95
2017-11-29T01:57:58.325Z,1001.92
2017-11-29T01:57:58.925Z,1001.91
2017-11-29T01:57:59.523Z,1001.94
2017-11-29T01:58:00.126Z,1001.96
2017-11-29T01:58:53.603Z,1001.91
2017-11-29T01:58:54.178Z,1001.96
2017-11-29T01:58:54.776Z,1001.94
2017-11-29T01:58:55.376Z,1001.94
2017-11-29T01:58:55.976Z,1001.96
2017-11-29T01:58:56.576Z,1001.94
2017-11-29T01:58:57.176Z,1001.95
2017-11-29T01:58:57.777Z,1001.92
2017-11-29T01:59:52.277Z,1001.98
2017-11-29T01:59:52.853Z,1001.95
2017-11-29T01:59:53.452Z,1001.94
2017-11-29T01:59:54.051Z,1001.94
2017-11-29T01:59:54.649Z,1001.96
2017-11-29T01:59:55.250Z,1001.93
2017-11-29T01:59:55.853Z,1001.95
2017-11-29T01:59:56.452Z,1001.97
2017-11-29T02:01:23.123Z,1001.94
2017-11-29T02:01:23.681Z,1001.90
2017-11-29T02:01:24.281Z,1001.88
2017-11-29T02:02:21.790Z,1001.92
2017-11-29T02:02:22.358Z,1001.90
2017-11-29T02:02:22.957Z,1001.89
2017-11-29T02:04:25.272Z,1001.90
2017-11-29T02:04:25.843Z,1001.90
2017-11-29T02:04:26.447Z,1001.91
2017-11-29T02:04:27.047Z,1001.90
2017-11-29T02:04:27.643Z,1001.91
2017-11-29T02:04:28.243Z,1001.90
2017-11-29T02:04:28.856Z,1001.91
2017-11-29T02:04:29.444Z,1001.91
2017-11-29T02:04:30.043Z,1001.87
2017-11-29T02:04:30.642Z,1001.89
2017-11-29T02:04:31.240Z,1001.87
2017-11-29T02:04:31.842Z,1001.90
2017-11-29T02:05:25.901Z,1001.89
2017-11-29T02:05:26.474Z,1001.95
2017-11-29T02:05:27.074Z,1001.86
2017-11-29T02:05:27.680Z,1001.88
2017-11-29T02:05:28.274Z,1001.90
2017-11-29T02:05:28.873Z,1001.89
2017-11-29T02:05:29.474Z,1001.90
2017-11-29T02:05:30.073Z,1001.92
2017-11-29T02:06:23.551Z,1001.88
2017-11-29T02:06:24.127Z,1001.90
2017-11-29T02:06:24.725Z,1001.90
2017-11-29T02:06:25.325Z,1001.90
2017-11-29T02:06:25.925Z,1001.86
2017-11-29T02:06:26.533Z,1001.82
2017-11-29T02:06:27.125Z,1001.92
2017-11-29T02:06:27.725Z,1001.88
2017-11-29T02:07:22.227Z,1001.91
2017-11-29T02:07:22.801Z,1001.89
2017-11-29T02:07:23.401Z,1001.90
2017-11-29T02:07:24.001Z,1001.90
2017-11-29T02:07:24.600Z,1001.91
2017-11-29T02:07:25.205Z,1001.91
2017-11-29T02:07:25.800Z,1001.93
2017-11-29T02:07:26.400Z,1001.89
2017-11-29T02:08:19.880Z,1001.93
2017-11-29T02:08:20.461Z,1001.91
2017-11-29T02:08:21.052Z,1001.93
2017-11-29T02:08:21.654Z,1001.89
2017-11-29T02:08:22.252Z,1001.91
2017-11-29T02:08:22.856Z,1001.92
2017-11-29T02:08:23.453Z,1001.90
2017-11-29T02:08:24.053Z,1001.94
2017-11-29T02:09:18.562Z,1001.92
2017-11-29T02:09:19.128Z,1001.91
2017-11-29T02:09:19.728Z,1001.89
2017-11-29T02:09:20.328Z,1001.93
2017-11-29T02:09:20.927Z,1001.87
2017-11-29T02:09:21.529Z,1001.93
2017-11-29T02:09:22.127Z,1001.94
2017-11-29T02:09:22.727Z,1001.89
2017-11-29T02:10:16.209Z,1001.88
2017-11-29T02:10:16.783Z,1001.91
2017-11-29T02:10:17.381Z,1001.94
2017-11-29T02:10:17.981Z,1001.90
2017-11-29T02:10:18.581Z,1001.89
2017-11-29T02:10:19.180Z,1001.89
2017-11-29T02:10:19.780Z,1001.94
2017-11-29T02:10:20.380Z,1001.92
2017-11-29T02:11:13.859Z,1001.91
2017-11-29T02:11:14.440Z,1001.87
2017-11-29T02:11:15.035Z,1001.94
2017-11-29T02:11:15.634Z,1001.92
2017-11-29T02:11:16.232Z,1001.95
2017-11-29T02:11:16.833Z,1001.96
2017-11-29T02:11:17.434Z,1001.91
2017-11-29T02:11:18.032Z,1001.95
2017-11-29T02:12:11.510Z,1001.94
2017-11-29T02:12:12.084Z,1001.92
2017-11-29T02:12:12.685Z,1001.93
2017-11-29T02:12:13.285Z,1001.91
2017-11-29T02:12:13.890Z,1001.92
2017-11-29T02:12:14.485Z,1001.97
2017-11-29T02:12:15.084Z,1001.95
2017-11-29T02:12:15.683Z,1001.94
2017-11-29T02:13:09.164Z,1001.93
2017-11-29T02:13:09.736Z,1001.91
2017-11-29T02:13:10.335Z,1001.92
2017-11-29T02:13:10.936Z,1001.92
2017-11-29T02:13:11.535Z,1001.93
2017-11-29T02:13:12.134Z,1001.92
2017-11-29T02:13:12.735Z,1001.91
2017-11-29T02:13:13.334Z,1001.92
2017-11-29T02:14:07.837Z,1001.91
2017-11-29T02:14:08.412Z,1001.92
2017-11-29T02:14:09.013Z,1001.91
2017-11-29T02:14:09.612Z,1001.90
2017-11-29T02:14:10.210Z,1001.92
2017-11-29T02:14:10.809Z,1001.92
2017-11-29T02:14:11.410Z,1001.89
2017-11-29T02:14:12.009Z,1001.90
2017-11-29T02:15:05.492Z,1001.92
2017-11-29T02:15:06.064Z,1001.90
2017-11-29T02:15:06.663Z,1001.89
2017-11-29T02:15:07.277Z,1001.92
2017-11-29T02:15:07.863Z,1001.93
2017-11-29T02:15:08.486Z,1001.87
2017-11-29T02:15:09.062Z,1001.90
2017-11-29T02:15:09.672Z,1001.91
2017-11-29T02:16:03.654Z,1001.92
2017-11-29T02:16:04.230Z,1001.89
2017-11-29T02:16:04.830Z,1001.94
2017-11-29T02:16:05.426Z,1001.91
2017-11-29T02:16:06.026Z,1001.86
2017-11-29T02:16:06.625Z,1001.89
2017-11-29T02:16:07.225Z,1001.91
2017-11-29T02:17:01.729Z,1001.94
2017-11-29T02:17:02.290Z,1001.91
2017-11-29T02:17:02.885Z,1001.92
2017-11-29T02:17:03.490Z,1001.92
2017-11-29T02:17:04.086Z,1001.93
2017-11-29T02:17:04.685Z,1001.90
2017-11-29T02:17:05.284Z,1001.90
2017-11-29T02:17:05.888Z,1001.89
2017-11-29T02:17:59.372Z,1001.92
2017-11-29T02:17:59.941Z,1001.91
2017-11-29T02:18:00.541Z,1001.90
2017-11-29T02:18:01.139Z,1001.90
2017-11-29T02:18:01.739Z,1001.91
2017-11-29T02:18:02.338Z,1001.92
2017-11-29T02:18:02.946Z,1001.92
2017-11-29T02:18:03.538Z,1001.92
2017-11-29T02:18:58.042Z,1001.92
2017-11-29T02:18:58.618Z,1001.96
2017-11-29T02:18:59.214Z,1001.94
2017-11-29T02:18:59.815Z,1001.95
2017-11-29T02:19:00.414Z,1001.94
2017-11-29T02:19:01.016Z,1001.90
2017-11-29T02:19:01.615Z,1001.92
2017-11-29T02:19:02.215Z,1001.94
2017-11-29T02:19:56.716Z,1001.91
2017-11-29T02:19:57.293Z,1001.92
2017-11-29T02:19:57.891Z,1001.92
2017-11-29T02:19:58.489Z,1001.88
2017-11-29T02:19:59.088Z,1001.88
2017-11-29T02:19:59.689Z,1001.86
2017-11-29T02:20:00.295Z,1001.91
2017-11-29T02:20:00.889Z,1001.87
2017-11-29T02:20:55.392Z,1001.95
2017-11-29T02:20:55.966Z,1001.94
2017-11-29T02:20:56.567Z,1001.92
2017-11-29T02:20:57.165Z,1001.95
2017-11-29T02:20:57.766Z,1001.94
2017-11-29T02:20:58.365Z,1001.95
2017-11-29T02:20:58.972Z,1001.88
2017-11-29T02:20:59.565Z,1001.94
2017-11-29T02:21:54.069Z,1001.93
2017-11-29T02:21:54.641Z,1001.92
2017-11-29T02:21:55.242Z,1001.89
2017-11-29T02:21:55.842Z,1001.91
2017-11-29T02:21:56.441Z,1001.93
2017-11-29T02:21:57.041Z,1001.91
2017-11-29T02:21:57.641Z,1001.93
2017-11-29T02:21:58.242Z,1001.94
2017-11-29T02:22:52.743Z,1001.93
2017-11-29T02:22:53.320Z,1001.94
2017-11-29T02:22:53.917Z,1001.93
2017-11-29T02:22:54.517Z,1001.95
2017-11-29T02:22:55.117Z,1001.90
2017-11-29T02:22:55.718Z,1001.94
2017-11-29T02:22:56.316Z,1001.90
2017-11-29T02:22:56.917Z,1001.89
2017-11-29T02:23:50.394Z,1001.89
2017-11-29T02:23:50.969Z,1001.87
2017-11-29T02:23:51.569Z,1001.88
2017-11-29T02:23:52.172Z,1001.90
2017-11-29T02:23:53.448Z,1001.90
2017-11-29T02:23:53.954Z,1001.88
2017-11-29T02:23:54.550Z,1001.88
2017-11-29T02:24:49.071Z,1001.94
2017-11-29T02:24:49.646Z,1001.91
2017-11-29T02:24:50.244Z,1001.94
2017-11-29T02:24:50.846Z,1001.92
2017-11-29T02:24:51.444Z,1001.93
2017-11-29T02:24:52.042Z,1001.93
2017-11-29T02:24:52.643Z,1001.90
2017-11-29T02:24:53.242Z,1001.92
2017-11-29T02:25:46.728Z,1001.93
2017-11-29T02:25:47.295Z,1001.94
2017-11-29T02:25:47.896Z,1001.90
2017-11-29T02:25:48.497Z,1001.91
2017-11-29T02:25:49.095Z,1001.93
2017-11-29T02:25:49.695Z,1001.90
2017-11-29T02:25:50.295Z,1001.89
2017-11-29T02:25:50.895Z,1001.92
2017-11-29T02:26:45.398Z,1001.90
2017-11-29T02:26:45.972Z,1001.93
2017-11-29T02:26:46.571Z,1001.91
2017-11-29T02:26:47.171Z,1001.90
2017-11-29T02:26:47.773Z,1001.92
2017-11-29T02:26:48.373Z,1001.90
2017-11-29T02:26:48.971Z,1001.90
2017-11-29T02:26:49.571Z,1001.93
2017-11-29T02:27:44.074Z,1001.93
2017-11-29T02:27:44.649Z,1001.91
2017-11-29T02:27:45.249Z,1001.93
2017-11-29T02:27:45.847Z,1001.94
2017-11-29T02:27:46.447Z,1001.90
2017-11-29T02:27:47.047Z,1001.88
2017-11-29T02:27:47.645Z,1001.92
2017-11-29T02:27:48.246Z,1001.96
2017-11-29T02:28:42.236Z,1001.91
2017-11-29T02:28:42.816Z,1001.89
2017-11-29T02:28:43.411Z,1001.89
2017-11-29T02:28:44.009Z,1001.87
2017-11-29T02:28:44.609Z,1001.92
2017-11-29T02:28:45.210Z,1001.90
2017-11-29T02:28:45.813Z,1001.90
2017-11-29T02:29:41.833Z,1001.90
2017-11-29T02:29:42.411Z,1001.92
2017-11-29T02:29:43.009Z,1001.90
2017-11-29T02:29:43.607Z,1001.89
2017-11-29T02:29:44.208Z,1001.88
2017-11-29T02:29:44.808Z,1001.89
2017-11-29T02:30:38.874Z,1001.87
2017-11-29T02:30:39.446Z,1001.87
2017-11-29T02:30:40.049Z,1001.89
2017-11-29T02:30:40.646Z,1001.89
2017-11-29T02:30:41.255Z,1001.91
2017-11-29T02:30:41.850Z,1001.88
2017-11-29T02:30:42.454Z,1001.94
2017-11-29T02:30:43.046Z,1001.88
2017-11-29T02:31:36.524Z,1001.90
2017-11-29T02:31:37.098Z,1001.85
2017-11-29T02:31:37.698Z,1001.87
2017-11-29T02:31:38.297Z,1001.89
2017-11-29T02:31:38.897Z,1001.87
2017-11-29T02:31:39.498Z,1001.85
2017-11-29T02:31:40.098Z,1001.85
2017-11-29T02:31:40.697Z,1001.85
2017-11-29T02:32:34.687Z,1001.88
2017-11-29T02:32:35.267Z,1001.86
2017-11-29T02:32:35.861Z,1001.89
2017-11-29T02:32:36.468Z,1001.89
2017-11-29T02:32:37.060Z,1001.93
2017-11-29T02:32:37.662Z,1001.89
2017-11-29T02:32:38.260Z,1001.88
2017-11-29T02:33:33.260Z,1001.84
2017-11-29T02:33:33.836Z,1001.83
2017-11-29T02:33:34.435Z,1001.90
2017-11-29T02:33:35.038Z,1001.90
2017-11-29T02:33:35.635Z,1001.86
2017-11-29T02:33:36.232Z,1001.87
2017-11-29T02:52:18.954Z,1001.96
2017-11-29T02:52:20.487Z,1002.00
2017-11-29T02:52:21.001Z,1001.95
2017-11-29T02:52:21.588Z,1001.96
2017-11-29T02:52:22.189Z,1001.98
2017-11-29T02:52:22.789Z,1002.00
2017-11-29T02:52:23.391Z,1001.98
2017-11-29T02:53:18.442Z,1001.99
2017-11-29T02:53:19.016Z,1001.97
2017-11-29T02:53:19.616Z,1001.98
2017-11-29T02:53:20.216Z,1002.02
2017-11-29T02:53:20.817Z,1001.99
2017-11-29T02:53:21.426Z,1002.00
2017-11-29T02:53:22.020Z,1001.98
2017-11-29T02:53:22.616Z,1001.98
2017-11-29T02:54:16.103Z,1002.00
2017-11-29T02:54:16.675Z,1002.00
2017-11-29T02:54:17.273Z,1001.97
2017-11-29T02:54:17.870Z,1001.97
2017-11-29T02:54:18.472Z,1002.01
2017-11-29T02:54:19.072Z,1002.00
2017-11-29T02:54:19.669Z,1001.99
2017-11-29T02:54:20.272Z,1001.98
2017-11-29T02:55:14.772Z,1002.04
2017-11-29T02:55:15.345Z,1002.02
2017-11-29T02:55:15.946Z,1002.02
2017-11-29T02:55:16.545Z,1002.02
2017-11-29T02:55:17.146Z,1002.03
2017-11-29T02:55:17.746Z,1002.01
2017-11-29T02:55:18.343Z,1002.03
2017-11-29T02:55:18.947Z,1002.02
2017-11-29T02:56:12.423Z,1002.04
2017-11-29T02:56:12.998Z,1002.04
2017-11-29T02:56:13.598Z,1002.03
2017-11-29T02:56:14.197Z,1002.02
2017-11-29T02:56:14.800Z,1001.99
2017-11-29T02:56:15.413Z,1002.01
2017-11-29T02:56:15.997Z,1002.05
2017-11-29T02:56:16.597Z,1002.04
2017-11-29T02:57:11.098Z,1002.03
2017-11-29T02:57:11.672Z,1002.00
2017-11-29T02:57:12.273Z,1002.03
2017-11-29T02:57:12.872Z,1002.03
2017-11-29T02:57:13.473Z,1001.98
2017-11-29T02:57:14.073Z,1001.96
2017-11-29T02:57:14.672Z,1002.02
2017-11-29T02:57:15.271Z,1002.00
2017-11-29T02:58:08.754Z,1002.03
2017-11-29T02:58:09.331Z,1002.01
2017-11-29T02:58:09.924Z,1002.01
2017-11-29T02:58:10.525Z,1001.99
2017-11-29T02:58:11.125Z,1001.99
2017-11-29T02:58:11.725Z,1002.01
2017-11-29T02:58:12.324Z,1002.05
2017-11-29T02:58:12.925Z,1002.06
2017-11-29T02:59:06.401Z,1002.03
2017-11-29T02:59:06.978Z,1002.01
2017-11-29T02:59:07.578Z,1002.04
2017-11-29T02:59:08.180Z,1002.04
2017-11-29T02:59:08.776Z,1002.02
2017-11-29T02:59:09.379Z,1002.04
2017-11-29T02:59:09.977Z,1002.04
2017-11-29T02:59:10.579Z,1002.06
2017-11-29T03:00:05.079Z,1002.02
2017-11-29T03:00:05.658Z,1002.04
2017-11-29T03:00:06.251Z,1002.01
2017-11-29T03:00:06.850Z,1002.05
2017-11-29T03:00:07.452Z,1002.04
2017-11-29T03:00:08.058Z,1002.00
2017-11-29T03:00:08.651Z,1002.06
2017-11-29T03:00:09.253Z,1002.05
2017-11-29T03:01:03.752Z,1001.96
2017-11-29T03:01:04.329Z,1001.98
2017-11-29T03:01:04.928Z,1001.98
2017-11-29T03:01:05.527Z,1001.96
2017-11-29T03:01:06.127Z,1001.94
2017-11-29T03:01:06.727Z,1001.95
2017-11-29T03:01:07.328Z,1001.97
2017-11-29T03:01:07.927Z,1002.00
2017-11-29T03:02:01.409Z,1001.98
2017-11-29T03:02:02.024Z,1001.98
2017-11-29T03:02:02.595Z,1001.94
2017-11-29T03:02:03.180Z,1001.92
2017-11-29T03:02:03.796Z,1001.95
2017-11-29T03:02:04.397Z,1001.91
2017-11-29T03:02:05.024Z,1001.92
2017-11-29T03:02:05.633Z,1001.92
2017-11-29T03:02:59.162Z,1001.94
2017-11-29T03:02:59.736Z,1001.90
2017-11-29T03:03:00.337Z,1001.92
2017-11-29T03:03:00.935Z,1001.91
2017-11-29T03:03:01.535Z,1001.93
2017-11-29T03:03:02.135Z,1001.94
2017-11-29T03:03:02.733Z,1001.92
2017-11-29T03:03:03.334Z,1001.93
2017-11-29T03:03:56.814Z,1001.92
2017-11-29T03:03:57.387Z,1001.95
2017-11-29T03:03:57.985Z,1001.93
2017-11-29T03:03:58.586Z,1001.93
2017-11-29T03:03:59.190Z,1001.92
2017-11-29T03:03:59.793Z,1001.94
2017-11-29T03:04:00.386Z,1001.91
2017-11-29T03:04:00.986Z,1001.94
2017-11-29T03:04:54.464Z,1001.92
2017-11-29T03:04:55.037Z,1001.93
2017-11-29T03:04:55.641Z,1001.93
2017-11-29T03:04:56.238Z,1001.93
2017-11-29T03:04:56.837Z,1001.88
2017-11-29T03:04:57.438Z,1001.92
2017-11-29T03:04:58.039Z,1001.89
2017-11-29T03:04:58.637Z,1001.90
2017-11-29T03:05:53.652Z,1001.90
2017-11-29T03:05:54.233Z,1001.90
2017-11-29T03:05:54.825Z,1001.90
2017-11-29T03:05:55.424Z,1001.91
2017-11-29T03:05:56.024Z,1001.93
2017-11-29T03:05:56.625Z,1001.94
2017-11-29T03:05:57.225Z,1001.96
2017-11-29T03:06:50.689Z,1001.95
2017-11-29T03:06:51.272Z,1001.92
2017-11-29T03:06:51.867Z,1001.91
2017-11-29T03:06:52.466Z,1001.94
2017-11-29T03:06:53.064Z,1001.92
2017-11-29T03:06:53.663Z,1001.95
2017-11-29T03:06:54.261Z,1001.94
2017-11-29T03:06:54.863Z,1001.92
2017-11-29T03:07:48.341Z,1001.95
2017-11-29T03:07:48.944Z,1001.97
2017-11-29T03:07:49.515Z,1001.95
2017-11-29T03:07:50.115Z,1001.93
2017-11-29T03:07:50.718Z,1001.93
2017-11-29T03:07:51.316Z,1001.93
2017-11-29T03:07:51.913Z,1001.94
2017-11-29T03:07:52.515Z,1001.95
2017-11-29T03:08:47.016Z,1001.94
2017-11-29T03:08:47.590Z,1001.96
2017-11-29T03:08:48.192Z,1001.95
2017-11-29T03:08:48.790Z,1001.92
2017-11-29T03:08:49.397Z,1001.91
2017-11-29T03:08:49.990Z,1001.95
2017-11-29T03:08:50.589Z,1001.97
2017-11-29T03:08:51.189Z,1001.93
2017-11-29T03:09:44.669Z,1001.95
2017-11-29T03:09:45.242Z,1001.96
2017-11-29T03:09:45.843Z,1001.95
2017-11-29T03:09:46.444Z,1001.97
2017-11-29T03:09:47.041Z,1001.97
2017-11-29T03:09:47.642Z,1001.96
2017-11-29T03:09:48.240Z,1001.94
2017-11-29T03:09:48.841Z,1001.93
2017-11-29T03:10:43.343Z,1001.96
2017-11-29T03:10:43.918Z,1001.98
2017-11-29T03:10:44.518Z,1001.95
2017-11-29T03:10:45.117Z,1001.99
2017-11-29T03:10:45.715Z,1001.98
2017-11-29T03:10:46.316Z,1001.95
2017-11-29T03:10:46.921Z,1001.98
2017-11-29T03:10:47.517Z,1001.97
2017-11-29T03:11:42.020Z,1001.95
2017-11-29T03:11:42.594Z,1001.97
2017-11-29T03:11:43.203Z,1001.97
2017-11-29T03:11:43.794Z,1001.99
2017-11-29T03:11:44.393Z,1001.96
2017-11-29T03:11:44.993Z,1001.95
2017-11-29T03:11:45.593Z,1001.97
2017-11-29T03:11:46.195Z,1001.92
2017-11-29T03:12:39.787Z,1001.96
2017-11-29T03:12:40.348Z,1001.92
2017-11-29T03:12:40.948Z,1001.93
2017-11-29T03:12:41.547Z,1001.95
2017-11-29T03:12:42.147Z,1001.95
2017-11-29T03:12:42.746Z,1001.92
2017-11-29T03:12:43.346Z,1001.95
2017-11-29T03:12:43.947Z,1001.96
2017-11-29T03:13:37.427Z,1001.98
2017-11-29T03:13:38.002Z,1001.98
2017-11-29T03:13:38.600Z,1001.93
2017-11-29T03:13:39.203Z,1001.96
2017-11-29T03:13:39.798Z,1001.96
2017-11-29T03:13:40.399Z,1001.96
2017-11-29T03:13:40.999Z,1001.94
2017-11-29T03:13:41.598Z,1001.95
2017-11-29T03:14:36.101Z,1001.94
2017-11-29T03:14:36.675Z,1001.98
2017-11-29T03:14:37.275Z,1002.00
2017-11-29T03:14:37.875Z,1001.96
2017-11-29T03:14:38.474Z,1001.96
2017-11-29T03:14:39.074Z,1001.95
2017-11-29T03:14:39.676Z,1001.97
2017-11-29T03:14:40.273Z,1001.96
2017-11-29T03:15:33.754Z,1001.97
2017-11-29T03:15:34.326Z,1001.96
2017-11-29T03:15:34.928Z,1001.92
2017-11-29T03:15:35.527Z,1001.92
2017-11-29T03:15:36.126Z,1001.97
2017-11-29T03:15:36.729Z,1001.97
2017-11-29T03:15:37.326Z,1001.95
2017-11-29T03:15:37.928Z,1001.91
2017-11-29T03:16:32.429Z,1001.98
2017-11-29T03:16:33.004Z,1001.96
2017-11-29T03:16:33.602Z,1002.03
2017-11-29T03:16:34.203Z,1001.98
2017-11-29T03:16:34.801Z,1002.00
2017-11-29T03:16:35.409Z,1001.97
2017-11-29T03:16:36.005Z,1001.98
2017-11-29T03:16:36.600Z,1001.99
2017-11-29T03:17:30.081Z,1001.97
2017-11-29T03:17:30.654Z,1001.96
2017-11-29T03:17:31.254Z,1001.96
2017-11-29T03:17:31.854Z,1001.97
2017-11-29T03:17:32.453Z,1001.99
2017-11-29T03:17:33.053Z,1001.95
2017-11-29T03:17:33.654Z,1001.98
2017-11-29T03:17:34.254Z,1001.98
2017-11-29T03:18:27.732Z,1001.97
2017-11-29T03:18:28.312Z,1001.98
2017-11-29T03:18:28.905Z,1001.95
2017-11-29T03:18:29.507Z,1001.95
2017-11-29T03:18:30.105Z,1001.98
2017-11-29T03:18:30.704Z,1001.93
2017-11-29T03:18:31.304Z,1001.96
2017-11-29T03:18:31.906Z,1001.98
2017-11-29T03:19:26.408Z,1001.93
2017-11-29T03:19:26.982Z,1001.95
2017-11-29T03:19:27.581Z,1001.92
2017-11-29T03:19:28.191Z,1001.91
2017-11-29T03:19:28.781Z,1001.92
2017-11-29T03:19:29.381Z,1001.90
2017-11-29T03:19:29.981Z,1001.92
2017-11-29T03:19:30.581Z,1001.93
2017-11-29T03:20:25.083Z,1001.96
2017-11-29T03:20:25.656Z,1001.98
2017-11-29T03:20:26.257Z,1001.97
2017-11-29T03:20:26.860Z,1001.94
2017-11-29T03:20:27.457Z,1001.99
2017-11-29T03:20:28.055Z,1001.98
2017-11-29T03:20:28.655Z,1001.98
2017-11-29T03:20:29.256Z,1001.96
2017-11-29T03:21:22.737Z,1001.95
2017-11-29T03:21:23.310Z,1001.92
2017-11-29T03:21:23.912Z,1001.96
2017-11-29T03:21:24.509Z,1001.92
2017-11-29T03:21:25.109Z,1001.92
2017-11-29T03:21:25.712Z,1001.96
2017-11-29T03:21:26.309Z,1001.95
2017-11-29T03:21:26.927Z,1001.94
2017-11-29T03:22:20.386Z,1001.94
2017-11-29T03:22:20.960Z,1001.95
2017-11-29T03:22:21.560Z,1001.96
2017-11-29T03:22:22.159Z,1001.93
2017-11-29T03:22:22.759Z,1001.94
2017-11-29T03:22:23.363Z,1001.94
2017-11-29T03:22:23.959Z,1001.91
2017-11-29T03:22:24.560Z,1001.94
2017-11-29T03:23:18.039Z,1001.96
2017-11-29T03:23:18.612Z,1001.98
2017-11-29T03:23:19.212Z,1001.95
2017-11-29T03:23:19.811Z,1001.97
2017-11-29T03:23:20.412Z,1001.89
2017-11-29T03:23:21.012Z,1001.95
2017-11-29T03:23:21.612Z,1001.95
2017-11-29T03:23:22.210Z,1001.93
2017-11-29T03:24:15.689Z,1001.94
2017-11-29T03:24:16.264Z,1001.96
2017-11-29T03:24:16.868Z,1001.93
2017-11-29T03:24:17.473Z,1001.94
2017-11-29T03:24:18.063Z,1001.96
2017-11-29T03:24:18.662Z,1001.93
2017-11-29T03:24:19.262Z,1001.94
2017-11-29T03:24:19.863Z,1001.94
2017-11-29T03:25:13.348Z,1001.97
2017-11-29T03:25:13.917Z,1002.00
2017-11-29T03:25:14.516Z,1001.96
2017-11-29T03:25:15.116Z,1001.92
2017-11-29T03:25:15.715Z,1001.96
2017-11-29T03:25:16.319Z,1001.95
2017-11-29T03:25:16.916Z,1001.94
2017-11-29T03:25:17.514Z,1001.94
2017-11-29T03:26:12.024Z,1001.96
2017-11-29T03:26:12.594Z,1001.95
2017-11-29T03:26:13.191Z,1001.98
2017-11-29T03:26:13.790Z,1001.95
2017-11-29T03:26:14.389Z,1001.99
2017-11-29T03:26:14.989Z,1001.94
2017-11-29T03:26:15.589Z,1001.93
2017-11-29T03:26:16.189Z,1001.94
2017-11-29T03:27:09.670Z,1001.94
2017-11-29T03:27:10.242Z,1001.93
2017-11-29T03:27:10.843Z,1001.94
2017-11-29T03:27:11.442Z,1001.93
2017-11-29T03:27:12.042Z,1001.95
2017-11-29T03:27:12.645Z,1001.93
2017-11-29T03:27:13.243Z,1001.93
2017-11-29T03:27:13.842Z,1001.95